createdAt,value
2017-12-04T00:00:55.350Z,20.23
2017-12-04T00:03:22.898Z,21.40
2017-12-04T00:05:50.443Z,20.37
2017-12-04T00:08:18.002Z,19.80
2017-12-04T00:10:45.544Z,20.10
2017-12-04T00:13:13.134Z,20.70
2017-12-04T00:15:40.695Z,20.40
2017-12-04T00:18:08.267Z,19.80
2017-12-04T00:20:35.846Z,21.47
2017-12-04T00:23:04.159Z,21.03
2017-12-04T00:25:31.735Z,22.67
2017-12-04T00:27:59.302Z,21.67
2017-12-04T00:30:26.879Z,20.97
2017-12-04T00:32:54.433Z,22.80
2017-12-04T00:35:21.990Z,23.83
2017-12-04T00:37:49.563Z,22.70
2017-12-04T00:40:17.110Z,22.77
2017-12-04T00:42:44.665Z,23.10
2017-12-04T00:45:12.226Z,22.10
2017-12-04T00:47:39.795Z,24.23
2017-12-04T00:50:07.356Z,23.73
2017-12-04T00:52:34.947Z,20.83
2017-12-04T00:55:03.283Z,22.23
2017-12-04T00:57:30.835Z,21.60
2017-12-04T00:59:58.375Z,21.00
2017-12-04T01:02:25.945Z,22.53
2017-12-04T01:04:53.522Z,22.30
2017-12-04T01:07:21.070Z,22.13
2017-12-04T01:09:48.611Z,21.00
2017-12-04T01:12:16.163Z,21.57
2017-12-04T01:14:43.696Z,21.37
2017-12-04T01:17:11.274Z,21.10
2017-12-04T01:19:38.830Z,21.70
2017-12-04T01:22:07.166Z,20.20
2017-12-04T01:24:34.767Z,21.23
2017-12-04T01:27:03.083Z,20.23
2017-12-04T01:29:30.658Z,19.90
2017-12-04T01:31:58.978Z,21.93
2017-12-04T01:34:27.287Z,22.00
2017-12-04T01:36:54.822Z,21.70
2017-12-04T01:39:23.134Z,21.47
2017-12-04T01:41:50.712Z,20.57
2017-12-04T01:44:18.291Z,19.90
2017-12-04T01:46:45.831Z,20.93
2017-12-04T01:49:13.382Z,22.33
2017-12-04T01:51:40.982Z,19.73
2017-12-04T01:54:08.562Z,20.70
2017-12-04T01:56:36.874Z,21.77
2017-12-04T01:59:04.429Z,22.87
2017-12-04T02:01:31.983Z,22.33
2017-12-04T02:03:59.529Z,23.50
2017-12-04T02:06:27.109Z,22.60
2017-12-04T02:08:54.654Z,22.93
2017-12-04T02:11:22.208Z,24.17
2017-12-04T02:13:49.754Z,22.52
2017-12-04T02:16:18.075Z,21.00
2017-12-04T02:18:45.652Z,21.30
2017-12-04T02:21:13.210Z,21.60
2017-12-04T02:23:40.763Z,23.07
2017-12-04T02:26:08.311Z,22.50
2017-12-04T02:28:35.867Z,21.00
2017-12-04T02:31:03.439Z,20.63
2017-12-04T02:33:30.997Z,22.33
2017-12-04T02:35:58.548Z,21.70
2017-12-04T02:38:26.115Z,23.30
2017-12-04T02:40:53.657Z,19.63
2017-12-04T02:43:21.275Z,19.17
2017-12-04T02:45:48.861Z,19.43
2017-12-04T02:48:17.212Z,18.00
2017-12-04T02:50:44.818Z,18.27
2017-12-04T02:53:12.404Z,18.00
2017-12-04T02:55:40.764Z,17.43
2017-12-04T02:58:08.318Z,17.00
2017-12-04T03:00:35.893Z,16.90
2017-12-04T03:03:03.467Z,16.80
2017-12-04T03:05:31.014Z,18.23
2017-12-04T03:07:58.554Z,16.63
2017-12-04T03:10:26.094Z,17.83
2017-12-04T03:12:54.434Z,18.00
2017-12-04T03:15:21.975Z,16.80
2017-12-04T03:17:49.539Z,18.77
2017-12-04T03:20:17.106Z,16.60
2017-12-04T03:22:44.658Z,16.47
2017-12-04T03:25:12.243Z,17.20
2017-12-04T03:27:39.792Z,15.93
2017-12-04T03:30:07.375Z,17.23
2017-12-04T03:32:34.920Z,17.67
2017-12-04T03:35:02.558Z,16.67
2017-12-04T03:37:30.113Z,16.63
2017-12-04T03:39:57.673Z,18.10
2017-12-04T03:42:25.404Z,17.63
2017-12-04T03:44:52.963Z,18.23
2017-12-04T03:47:21.275Z,16.80
2017-12-04T03:49:48.940Z,16.87
2017-12-04T03:52:16.502Z,18.50
2017-12-04T03:54:44.087Z,17.97
2017-12-04T03:57:11.651Z,15.13
2017-12-04T03:59:39.214Z,17.67
2017-12-04T04:02:06.759Z,15.93
2017-12-04T04:04:34.311Z,16.10
2017-12-04T04:07:01.895Z,16.13
2017-12-04T04:09:29.459Z,15.70
2017-12-04T04:11:57.026Z,14.47
2017-12-04T04:14:24.563Z,16.30
2017-12-04T04:16:52.128Z,15.10
2017-12-04T04:19:19.692Z,15.20
2017-12-04T04:21:47.243Z,15.10
2017-12-04T04:24:14.851Z,14.73
2017-12-04T04:26:43.177Z,14.50
2017-12-04T04:29:10.735Z,15.23
2017-12-04T04:31:38.286Z,13.90
2017-12-04T04:34:05.831Z,14.90
2017-12-04T04:36:33.406Z,14.33
2017-12-04T04:39:00.947Z,15.50
2017-12-04T04:41:28.501Z,14.67
2017-12-04T04:43:56.082Z,15.07
2017-12-04T04:46:23.627Z,14.90
2017-12-04T04:48:51.202Z,15.00
2017-12-04T04:51:18.784Z,15.20
2017-12-04T04:53:46.331Z,14.80
2017-12-04T04:56:14.716Z,15.93
2017-12-04T04:58:42.300Z,14.97
2017-12-04T05:01:09.904Z,14.57
2017-12-04T05:03:37.488Z,16.43
2017-12-04T05:06:05.061Z,16.73
2017-12-04T05:08:32.603Z,17.00
2017-12-04T05:11:00.156Z,14.53
2017-12-04T05:13:27.744Z,13.80
2017-12-04T05:15:55.322Z,14.60
2017-12-04T05:18:22.933Z,13.93
2017-12-04T05:20:50.525Z,13.57
2017-12-04T05:23:18.071Z,12.90
2017-12-04T05:25:45.615Z,13.33
2017-12-04T05:28:13.157Z,13.83
2017-12-04T05:30:40.731Z,15.93
2017-12-04T05:33:08.274Z,14.10
2017-12-04T05:35:36.610Z,15.70
2017-12-04T05:38:04.170Z,14.23
2017-12-04T05:40:31.756Z,14.67
2017-12-04T05:42:59.347Z,14.63
2017-12-04T05:45:26.913Z,13.77
2017-12-04T05:47:54.456Z,12.83
2017-12-04T05:50:22.028Z,13.53
2017-12-04T05:52:49.586Z,15.10
2017-12-04T05:55:17.173Z,14.77
2017-12-04T05:57:44.729Z,14.40
2017-12-04T06:00:12.275Z,14.70
2017-12-04T06:02:39.860Z,13.67
2017-12-04T06:05:07.415Z,14.10
2017-12-04T06:07:34.983Z,14.10
2017-12-04T06:10:02.534Z,15.40
2017-12-04T06:12:30.110Z,13.40
2017-12-04T06:14:57.666Z,14.90
2017-12-04T06:17:27.255Z,14.67
2017-12-04T06:19:54.794Z,14.00
2017-12-04T06:22:22.368Z,14.90
2017-12-04T06:24:49.942Z,14.77
2017-12-04T06:27:17.495Z,14.40
2017-12-04T06:29:45.030Z,14.60
2017-12-04T06:32:12.567Z,14.90
2017-12-04T06:34:40.138Z,13.37
2017-12-04T06:37:08.472Z,15.00
2017-12-04T06:39:36.022Z,12.63
2017-12-04T06:42:03.578Z,13.90
2017-12-04T06:44:31.132Z,13.57
2017-12-04T06:46:58.742Z,14.10
2017-12-04T06:49:26.331Z,16.00
2017-12-04T06:51:53.884Z,14.70
2017-12-04T06:54:22.191Z,14.03
2017-12-04T06:56:49.738Z,15.23
2017-12-04T06:59:17.295Z,13.97
2017-12-04T07:01:44.873Z,11.90
2017-12-04T07:04:12.414Z,13.57
2017-12-04T07:06:39.960Z,13.20
2017-12-04T07:09:08.282Z,16.00
2017-12-04T07:11:35.847Z,13.87
2017-12-04T07:14:03.436Z,14.10
2017-12-04T07:16:30.984Z,15.40
2017-12-04T07:18:58.531Z,14.60
2017-12-04T07:21:26.070Z,13.17
2017-12-04T07:23:53.613Z,13.67
2017-12-04T07:26:21.177Z,12.83
2017-12-04T07:28:48.717Z,13.13
2017-12-04T07:31:16.266Z,11.37
2017-12-04T07:33:43.826Z,12.40
2017-12-04T07:36:12.149Z,10.33
2017-12-04T07:38:39.710Z,11.40
2017-12-04T07:41:07.270Z,12.17
2017-12-04T07:43:34.814Z,11.40
2017-12-04T07:46:14.683Z,10.83
2017-12-04T07:48:42.223Z,9.93
2017-12-04T07:51:09.827Z,10.10
2017-12-04T07:53:37.377Z,10.70
2017-12-04T07:56:04.923Z,10.80
2017-12-04T07:58:32.478Z,10.80
2017-12-04T08:01:00.038Z,12.10
2017-12-04T08:03:27.621Z,12.97
2017-12-04T08:05:55.261Z,13.10
2017-12-04T08:08:22.804Z,11.67
2017-12-04T08:10:50.350Z,12.93
2017-12-04T08:13:18.655Z,14.07
2017-12-04T08:15:46.226Z,12.03
2017-12-04T08:18:13.800Z,12.17
2017-12-04T08:20:41.363Z,10.60
2017-12-04T08:23:08.955Z,11.60
2017-12-04T08:25:36.524Z,10.63
2017-12-04T08:28:04.855Z,9.83
2017-12-04T08:30:32.426Z,10.00
2017-12-04T08:32:59.972Z,10.57
2017-12-04T08:35:27.523Z,9.67
2017-12-04T08:37:55.070Z,10.03
2017-12-04T08:40:22.636Z,9.27
2017-12-04T08:42:50.179Z,9.40
2017-12-04T08:45:17.751Z,9.50
2017-12-04T08:47:45.298Z,9.70
2017-12-04T08:50:12.846Z,8.47
2017-12-04T08:52:40.392Z,9.50
2017-12-04T08:55:08.708Z,8.73
2017-12-04T08:57:36.271Z,8.90
2017-12-04T09:00:03.843Z,9.03
2017-12-04T09:02:31.387Z,8.70
2017-12-04T09:04:58.946Z,8.67
2017-12-04T09:07:26.527Z,8.13
2017-12-04T09:09:54.103Z,8.10
2017-12-04T09:12:21.651Z,7.97
2017-12-04T09:14:49.204Z,7.80
2017-12-04T09:17:16.765Z,7.83
2017-12-04T09:19:44.302Z,7.27
2017-12-04T09:22:11.874Z,8.00
2017-12-04T09:24:39.411Z,6.87
2017-12-04T09:27:06.995Z,7.17
2017-12-04T09:29:34.582Z,6.80
2017-12-04T09:32:02.139Z,7.13
2017-12-04T09:34:29.673Z,7.50
2017-12-04T09:36:57.297Z,7.53
2017-12-04T09:39:24.827Z,6.47
2017-12-04T09:41:52.387Z,7.40
2017-12-04T09:44:19.935Z,7.03
2017-12-04T09:46:47.488Z,7.70
2017-12-04T09:49:15.043Z,7.60
2017-12-04T09:51:42.618Z,7.40
2017-12-04T09:54:10.193Z,6.97
2017-12-04T09:56:37.780Z,5.83
2017-12-04T09:59:06.097Z,7.00
2017-12-04T10:01:33.640Z,6.60
2017-12-04T10:04:01.194Z,6.63
2017-12-04T10:06:28.748Z,6.70
2017-12-04T10:08:56.314Z,6.60
2017-12-04T10:11:23.911Z,6.40
2017-12-04T10:13:51.486Z,7.00
2017-12-04T10:16:19.036Z,7.63
2017-12-04T10:18:46.607Z,7.27
2017-12-04T10:21:14.164Z,7.37
2017-12-04T10:23:41.702Z,7.27
2017-12-04T10:26:09.359Z,7.30
2017-12-04T10:28:36.886Z,7.77
2017-12-04T10:31:05.214Z,7.10
2017-12-04T10:33:32.762Z,6.87
2017-12-04T10:36:00.313Z,7.10
2017-12-04T10:38:27.876Z,6.90
2017-12-04T10:40:55.418Z,7.40
2017-12-04T10:43:22.999Z,7.20
2017-12-04T10:45:50.546Z,7.50
2017-12-04T10:48:18.103Z,7.10
2017-12-04T10:50:45.660Z,7.63
2017-12-04T10:53:13.209Z,7.70
2017-12-04T10:55:40.819Z,7.07
2017-12-04T10:58:08.359Z,6.57
2017-12-04T11:00:35.918Z,6.97
2017-12-04T11:03:03.459Z,8.07
2017-12-04T11:05:31.053Z,7.70
2017-12-04T11:07:58.622Z,9.10
2017-12-04T11:10:26.171Z,8.00
2017-12-04T11:12:54.503Z,8.40
2017-12-04T11:15:22.050Z,8.63
2017-12-04T11:17:50.369Z,8.33
2017-12-04T11:20:17.959Z,7.40
2017-12-04T11:22:45.508Z,7.90
2017-12-04T11:25:13.073Z,7.97
2017-12-04T11:27:40.641Z,8.10
2017-12-04T11:30:08.198Z,6.87
2017-12-04T11:32:35.764Z,8.03
2017-12-04T11:35:03.300Z,7.10
2017-12-04T11:37:30.863Z,7.20
2017-12-04T11:39:58.402Z,8.30
2017-12-04T11:42:25.974Z,11.47
2017-12-04T11:44:53.524Z,17.00
2017-12-04T11:47:21.084Z,13.27
2017-12-04T11:49:48.721Z,13.40
2017-12-04T11:52:16.247Z,14.50
2017-12-04T11:54:43.803Z,10.60
2017-12-04T11:57:11.360Z,8.17
2017-12-04T11:59:38.931Z,8.13
2017-12-04T12:02:06.485Z,8.43
2017-12-04T12:04:34.039Z,7.97
2017-12-04T12:07:01.631Z,8.20
2017-12-04T12:09:29.944Z,8.37
2017-12-04T12:11:57.525Z,8.17
2017-12-04T12:14:26.015Z,8.43
2017-12-04T12:16:53.554Z,8.00
2017-12-04T12:19:21.169Z,8.27
2017-12-04T12:21:48.719Z,8.00
2017-12-04T12:24:16.269Z,9.80
2017-12-04T12:26:43.825Z,8.47
2017-12-04T12:29:11.404Z,9.13
2017-12-04T12:31:38.970Z,8.63
2017-12-04T12:34:06.504Z,7.80
2017-12-04T12:36:34.059Z,7.70
2017-12-04T12:39:01.613Z,7.97
2017-12-04T12:41:29.154Z,7.90
2017-12-04T12:43:56.722Z,7.30
2017-12-04T12:46:24.272Z,8.73
2017-12-04T12:48:51.814Z,9.60
2017-12-04T12:51:19.382Z,8.90
2017-12-04T12:53:46.918Z,8.00
2017-12-04T12:56:15.226Z,7.93
2017-12-04T12:58:42.789Z,7.77
2017-12-04T13:01:10.342Z,7.30
2017-12-04T13:03:37.882Z,8.13
2017-12-04T13:06:06.179Z,7.97
2017-12-04T13:08:33.723Z,8.60
2017-12-04T13:11:01.270Z,8.80
2017-12-04T13:13:29.606Z,7.80
2017-12-04T13:15:57.175Z,8.63
2017-12-04T13:18:24.732Z,8.50
2017-12-04T13:20:52.291Z,8.10
2017-12-04T13:23:19.830Z,7.60
2017-12-04T13:25:47.363Z,6.77
2017-12-04T13:28:14.910Z,7.17
2017-12-04T13:30:43.263Z,7.20
2017-12-04T13:33:22.566Z,8.73
2017-12-04T13:36:01.972Z,8.23
2017-12-04T13:38:29.544Z,7.33
2017-12-04T13:40:57.093Z,6.57
2017-12-04T13:43:25.567Z,7.53
2017-12-04T13:45:53.878Z,7.80
2017-12-04T13:48:21.457Z,6.83
2017-12-04T13:50:49.017Z,7.17
2017-12-04T13:53:16.580Z,6.70
2017-12-04T13:55:44.143Z,6.40
2017-12-04T13:58:11.682Z,5.93
2017-12-04T14:00:39.244Z,7.03
2017-12-04T14:03:06.831Z,7.30
2017-12-04T14:05:34.372Z,6.10
2017-12-04T14:08:01.924Z,7.50
2017-12-04T14:10:29.515Z,6.60
2017-12-04T14:12:57.059Z,6.50
2017-12-04T14:15:24.600Z,6.60
2017-12-04T14:17:52.139Z,6.40
2017-12-04T14:20:19.689Z,6.03
2017-12-04T14:22:48.020Z,5.90
2017-12-04T14:25:15.575Z,5.73
2017-12-04T14:27:43.118Z,6.67
2017-12-04T14:30:10.677Z,5.83
2017-12-04T14:32:38.251Z,6.40
2017-12-04T14:35:05.812Z,6.97
2017-12-04T14:37:33.362Z,8.43
2017-12-04T14:40:00.916Z,8.37
2017-12-04T14:42:28.450Z,8.57
2017-12-04T14:45:19.635Z,8.33
2017-12-04T14:47:47.198Z,7.10
2017-12-04T14:50:14.752Z,6.17
2017-12-04T14:52:42.324Z,7.20
2017-12-04T14:55:09.933Z,7.30
2017-12-04T14:57:37.515Z,6.73
2017-12-04T15:00:05.091Z,6.13
2017-12-04T15:02:32.643Z,5.20
2017-12-04T15:05:00.217Z,6.53
2017-12-04T15:07:27.762Z,5.57
2017-12-04T15:09:55.345Z,6.00
2017-12-04T15:12:22.908Z,5.63
2017-12-04T15:14:50.478Z,4.83
2017-12-04T15:17:18.840Z,5.27
2017-12-04T15:19:46.416Z,5.43
2017-12-04T15:22:14.789Z,4.80
2017-12-04T15:24:43.111Z,5.43
2017-12-04T15:27:10.730Z,5.17
2017-12-04T15:29:39.084Z,5.00
2017-12-04T15:32:06.654Z,5.53
2017-12-04T15:34:34.214Z,6.40
2017-12-04T15:37:01.770Z,5.40
2017-12-04T15:39:40.717Z,5.50
2017-12-04T15:42:09.145Z,5.47
2017-12-04T15:44:38.442Z,5.67
2017-12-04T15:47:06.038Z,5.47
2017-12-04T15:49:33.590Z,5.43
2017-12-04T15:52:01.148Z,5.43
2017-12-04T15:54:28.716Z,5.50
2017-12-04T15:56:56.263Z,5.37
2017-12-04T15:59:23.855Z,7.03
2017-12-04T16:01:52.190Z,6.60
2017-12-04T16:04:20.559Z,6.80
2017-12-04T16:06:48.128Z,6.07
2017-12-04T16:09:15.697Z,6.50
2017-12-04T16:11:43.246Z,6.73
2017-12-04T16:14:10.788Z,5.37
2017-12-04T16:16:39.085Z,5.70
2017-12-04T16:19:06.637Z,6.37
2017-12-04T16:21:34.177Z,6.20
2017-12-04T16:24:01.765Z,6.27
2017-12-04T16:26:29.338Z,7.07
2017-12-04T16:28:56.934Z,6.63
2017-12-04T16:31:25.253Z,7.63
2017-12-04T16:33:52.801Z,8.00
2017-12-04T16:36:20.347Z,7.03
2017-12-04T16:38:47.924Z,6.57
2017-12-04T16:41:15.498Z,6.50
2017-12-04T16:43:43.095Z,7.33
2017-12-04T16:46:10.672Z,7.37
2017-12-04T16:48:39.010Z,6.07
2017-12-04T16:51:06.551Z,7.20
2017-12-04T16:53:34.095Z,6.63
2017-12-04T16:56:01.690Z,6.50
2017-12-04T16:58:29.238Z,7.00
2017-12-04T17:00:56.788Z,7.20
2017-12-04T17:03:24.340Z,8.37
2017-12-04T17:05:51.918Z,7.00
2017-12-04T17:08:19.480Z,7.53
2017-12-04T17:10:47.018Z,7.43
2017-12-04T17:13:15.514Z,8.17
2017-12-04T17:15:43.069Z,7.63
2017-12-04T17:18:10.626Z,7.70
2017-12-04T17:20:38.196Z,8.37
2017-12-04T17:23:05.787Z,9.07
2017-12-04T17:25:33.338Z,8.20
2017-12-04T17:28:04.395Z,9.00
2017-12-04T17:30:36.200Z,9.30
2017-12-04T17:33:03.771Z,8.23
2017-12-04T17:35:31.334Z,8.80
2017-12-04T17:37:59.809Z,9.50
2017-12-04T17:40:27.366Z,9.73
2017-12-04T17:42:54.945Z,10.03
2017-12-04T17:45:22.524Z,8.40
2017-12-04T17:47:50.072Z,10.10
2017-12-04T17:50:17.643Z,8.60
2017-12-04T17:52:45.199Z,9.40
2017-12-04T17:55:12.764Z,10.90
2017-12-04T17:57:40.346Z,10.80
2017-12-04T18:00:07.906Z,10.20
2017-12-04T18:02:35.484Z,10.70
2017-12-04T18:05:03.799Z,10.43
2017-12-04T18:07:31.399Z,9.17
2017-12-04T18:09:58.987Z,11.00
2017-12-04T18:12:27.307Z,10.00
2017-12-04T18:14:54.943Z,10.43
2017-12-04T18:17:22.523Z,10.00
2017-12-04T18:19:50.067Z,9.80
2017-12-04T18:22:17.650Z,10.47
2017-12-04T18:24:45.207Z,10.93
2017-12-04T18:27:12.771Z,9.60
2017-12-04T18:29:40.368Z,10.70
2017-12-04T18:32:17.613Z,10.80
2017-12-04T18:34:45.226Z,11.10
2017-12-04T18:37:12.780Z,11.07
2017-12-04T18:39:40.330Z,11.43
2017-12-04T18:42:07.923Z,10.50
2017-12-04T18:44:35.490Z,11.17
2017-12-04T18:47:03.083Z,11.63
2017-12-04T18:49:30.727Z,11.73
2017-12-04T18:51:58.311Z,12.60
2017-12-04T18:54:25.891Z,11.73
2017-12-04T18:56:53.439Z,12.10
2017-12-04T18:59:21.019Z,13.07
2017-12-04T19:01:48.625Z,12.03
2017-12-04T19:04:16.174Z,13.77
2017-12-04T19:06:44.505Z,12.30
2017-12-04T19:09:12.094Z,11.57
2017-12-04T19:11:40.607Z,11.57
2017-12-04T19:14:26.437Z,11.00
2017-12-04T19:16:54.023Z,11.20
2017-12-04T19:19:21.589Z,12.50
2017-12-04T19:21:49.164Z,11.43
2017-12-04T19:24:17.507Z,12.30
2017-12-04T19:26:48.415Z,15.80
2017-12-04T19:29:16.960Z,13.33
2017-12-04T19:31:45.307Z,19.40
2017-12-04T19:37:06.238Z,21.07
2017-12-04T19:39:33.872Z,15.43
2017-12-04T19:42:03.413Z,15.20
2017-12-04T19:44:32.035Z,24.13
2017-12-04T19:47:07.913Z,19.57
2017-12-04T19:49:35.500Z,15.03
2017-12-04T19:52:03.133Z,13.60
2017-12-04T19:54:30.686Z,12.90
2017-12-04T19:56:58.277Z,14.03
2017-12-04T19:59:25.839Z,12.50
2017-12-04T20:01:53.406Z,13.43
2017-12-04T20:04:20.984Z,12.93
2017-12-04T20:06:48.581Z,13.27
2017-12-04T20:09:16.150Z,14.30
2017-12-04T20:11:43.765Z,14.30
2017-12-04T20:14:22.372Z,11.70
2017-12-04T20:16:49.944Z,14.65
2017-12-04T20:19:17.519Z,13.63
2017-12-04T20:21:45.831Z,12.43
2017-12-04T20:24:13.411Z,12.50
2017-12-04T20:26:41.004Z,12.90
2017-12-04T20:29:09.358Z,11.50
2017-12-04T20:31:36.964Z,13.10
2017-12-04T20:34:05.286Z,10.90
2017-12-04T20:36:32.919Z,12.60
2017-12-04T20:39:00.496Z,12.70
2017-12-04T20:41:28.056Z,11.83
2017-12-04T20:43:55.657Z,11.77
2017-12-04T20:46:24.019Z,11.90
2017-12-04T20:48:51.560Z,10.50
2017-12-04T20:51:19.128Z,10.30
2017-12-04T20:53:56.655Z,11.40
2017-12-04T20:56:24.213Z,11.23
2017-12-04T20:58:51.812Z,11.63
2017-12-04T21:01:19.434Z,10.77
2017-12-04T21:03:47.007Z,12.47
2017-12-04T21:06:15.343Z,10.67
2017-12-04T21:08:54.753Z,10.87
2017-12-04T21:11:34.155Z,11.70
2017-12-04T21:14:13.483Z,12.67
2017-12-04T21:16:53.079Z,12.80
2017-12-04T21:19:20.636Z,13.30
2017-12-04T21:21:48.191Z,12.40
2017-12-04T21:24:15.778Z,12.83
2017-12-04T21:26:43.320Z,13.10
2017-12-04T21:29:10.874Z,12.80
2017-12-04T21:31:38.450Z,12.70
2017-12-04T21:34:06.038Z,12.73
2017-12-04T21:36:33.610Z,11.80
2017-12-04T21:39:01.166Z,12.40
2017-12-04T21:41:28.730Z,10.37
2017-12-04T21:43:56.300Z,11.37
2017-12-04T21:46:24.654Z,11.47
2017-12-04T21:48:52.274Z,11.60
2017-12-04T21:51:19.851Z,12.37
2017-12-04T21:53:47.426Z,11.13
2017-12-04T21:56:14.983Z,11.37
2017-12-04T21:58:42.530Z,12.60
2017-12-04T22:01:10.107Z,11.80
2017-12-04T22:03:37.646Z,11.00
2017-12-04T22:06:05.255Z,12.23
2017-12-04T22:08:32.809Z,12.37
2017-12-04T22:11:00.388Z,12.70
2017-12-04T22:13:28.810Z,11.57
2017-12-04T22:15:56.410Z,11.83
2017-12-04T22:18:24.004Z,11.50
2017-12-04T22:20:51.573Z,11.93
2017-12-04T22:23:19.147Z,12.30
2017-12-04T22:25:46.702Z,12.30
2017-12-04T22:28:14.274Z,11.40
2017-12-04T22:30:41.858Z,13.20
2017-12-04T22:33:09.427Z,11.77
2017-12-04T22:35:37.029Z,10.60
2017-12-04T22:38:04.610Z,10.33
2017-12-04T22:40:32.179Z,10.70
2017-12-04T22:42:59.718Z,11.73
2017-12-04T22:45:27.285Z,10.10
2017-12-04T22:47:54.854Z,10.87
2017-12-04T22:50:22.405Z,11.40
2017-12-04T22:52:49.945Z,10.33
2017-12-04T22:55:18.274Z,11.23
2017-12-04T22:57:45.827Z,9.70
2017-12-04T23:00:13.386Z,10.40
2017-12-04T23:02:40.952Z,9.93
2017-12-04T23:05:08.557Z,9.87
2017-12-04T23:07:36.124Z,10.00
2017-12-04T23:10:03.678Z,8.63
2017-12-04T23:12:31.992Z,9.37
2017-12-04T23:14:59.552Z,8.87
2017-12-04T23:17:27.143Z,9.00
2017-12-04T23:19:54.703Z,8.30
2017-12-04T23:22:22.263Z,9.90
2017-12-04T23:24:49.832Z,8.70
2017-12-04T23:27:17.396Z,8.30
2017-12-04T23:29:44.981Z,9.77
2017-12-04T23:32:12.535Z,9.00
2017-12-04T23:34:40.087Z,8.80
2017-12-04T23:37:07.638Z,8.03
2017-12-04T23:39:35.192Z,7.30
2017-12-04T23:42:02.770Z,7.70
2017-12-04T23:44:31.084Z,8.00
2017-12-04T23:46:58.669Z,8.50
2017-12-04T23:49:26.208Z,7.57
2017-12-04T23:51:53.763Z,8.43
2017-12-04T23:54:22.121Z,8.60
2017-12-04T23:56:50.431Z,8.30
2017-12-04T23:59:17.977Z,9.70
